East Tawas, MI

10:22 PM EDT on August 03, 2015 (GMT -0400)
Tawas Bay Weather | | Change Station
CLOSE
Current Station
Personal Weather Station
Location: East Tawas, MI
Elevation: 590 ft
Nearby Weather Stations

Elev 590 ft 44.28 °N, 83.48 °W | Updated 10 seconds ago

Overcast
Overcast
66.2 °F
Feels Like 66.2 °F
N
0.0
Wind Variable Wind from NNE
Gusts 0.0 mph

Today
High -- | Low -- °F
--% Chance of Precip.
Yesterday
High -- | Low -- °F
Precip. -- in
6:23 AM 8:56 PM
Waning Gibbous, 82% visible
Pressure 29.81 in
Visibility 10.0 miles
Clouds Scattered Clouds 6000 ft
Scattered Clouds 8500 ft
Overcast 10000 ft
Dew Point 60 °F
Humidity 79%
Rainfall 0.27 in
Snow Depth Not available.
UV 0 out of 12
Pollen 5.40 out of 12
Air Quality Not available.
Flu Activity Not available.
METAR KOSC 040213Z AUTO 13003KT 10SM SCT060 SCT085 OVC100 18/15 A2981 RMK AO2 T01870150

More Conditions Fewer Conditions

Pressure 29.81 in
Visibility 10.0 miles
Clouds Scattered Clouds 6000 ft
Scattered Clouds 8500 ft
Overcast 10000 ft
Dew Point 60 °F
Humidity 79%
Rainfall 0.27 in
Snow Depth Not available.
UV 0 out of 12
Pollen 5.40 out of 12
Air Quality Not available.
Flu Activity Not available.
METAR KOSC 040213Z AUTO 13003KT 10SM SCT060 SCT085 OVC100 18/15 A2981 RMK AO2 T01870150

More Conditions Fewer Conditions

Nowcast | as of 10:00 PM EDT on August 3, 2015

At 11 PM...partly cloudy. Chance of showers. Temperature 61. Light winds. At 1 am...partly cloudy. Chance of showers. Temperature 58. Light winds. At 3 am...partly cloudy. Scattered showers and isolated thunderstorms. Temperature 56. Light winds. At 5 am...partly cloudy. Scattered showers and isolated thunderstorms. Temperature 56. Light winds.

×

10-Day Weather Forecast

×

Almanac

Astronomy

Aug. 03, 2015 Rise Set
Actual Time
Civil Twilight
Nautical Twilight
Astronomical Twilight
Moon
Length of Visible Light
Length of Day
Tomorrow will be .
, % of the Moon is Illuminated

Today's Extremes

State Highs State Lows

Community

WunderPhotos

Upload Photos

1,843,831 photos uploaded!

WunderBlogs® & News

Nearby

Air Quality

  Air Quality AQ Index Pollutant
Not available.

Snow Depth

Station Depth Elevation

Earthquake Activity

City Distance Mag. Time & Date
Minimum magnitude displayed is 2.5.

Coastal Water Temperatures

Place Temperature

Stations

Nearby Weather Stations

Station Location Temp. Windchill Dew Point Humidity Wind Precip. Elev Updated Type